Svinoy — V7RM5 — position and weather

sailwx.info

Track history (hours):
 
Tides and Currents Weather Stations Pressure Air Temp Water Temp Dewpoint Dewpoint Depression Visibility Wind Speed Wind Dir Waves Ship Positions

Svinoy

Last reported at 2016-Feb-08 07:33 UTC. Time now 2016-Feb-08 08:17 UTC.
Position N 31°29' E 121°27'.

Length 190 m; draft 10.4 m.

Type: Cargo ship. MMSI: 538003541.

Date/timePositionNaut miles runAvg speedWind from/ knotsBaromVisibWave heightAir tempDewpointWater temp
2016-Feb-08 07:33N 31°29' E 121°27'9 9.0
2016-Feb-08 06:32N 31°23' E 121°36'1210.2
2016-Feb-08 05:23N 31°18' E 121°48'41 9.6
2016-Feb-08 01:04N 31°07' E 122°35'29 0.6
2016-Feb-05 21:06N 30°48' E 123°00'50110.1
2016-Feb-03 19:26N 22°56' E 119°53'1011.3
2016-Feb-03 18:33N 22°46' E 119°53'1110.8
2016-Feb-03 17:33N 22°35' E 119°53'1110.7
2016-Feb-03 16:32N 22°24' E 119°53'1111.5
2016-Feb-03 15:33N 22°13' E 119°53'1711.6
2016-Feb-03 14:03N 21°56' E 119°53'  
Track history (hours):
 
Tides and Currents Weather Stations Pressure Air Temp Water Temp Dewpoint Dewpoint Depression Visibility Wind Speed Wind Dir Waves Ship Positions

Svinoy

Last reported at 2016-Feb-08 07:33 UTC. Time now 2016-Feb-08 08:17 UTC.
Position N 31°29' E 121°27'.

Length 190 m; draft 10.4 m.

Type: Cargo ship. MMSI: 538003541.

Date/timePositionNaut miles runAvg speedWind from/ knotsBaromVisibWave heightAir tempDewpointWater temp
2016-Feb-08 07:33N 31°29' E 121°27'9 9.0
2016-Feb-08 06:32N 31°23' E 121°36'1210.2
2016-Feb-08 05:23N 31°18' E 121°48'41 9.6
2016-Feb-08 01:04N 31°07' E 122°35'29 0.6
2016-Feb-05 21:06N 30°48' E 123°00'50110.1
2016-Feb-03 19:26N 22°56' E 119°53'1011.3
2016-Feb-03 18:33N 22°46' E 119°53'1110.8
2016-Feb-03 17:33N 22°35' E 119°53'1110.7
2016-Feb-03 16:32N 22°24' E 119°53'1111.5
2016-Feb-03 15:33N 22°13' E 119°53'1711.6
2016-Feb-03 14:03N 21°56' E 119°53'  

Dump ship's entire track history